| time (UTC) | temp C | wind direction | speed KPH | gust KPH | rain 1hr cm | rain 24hr cm | rain mn cm | humidity % | barometer mb |
| 20260505075704 | 11 | 184 | 0.0 | 4.8 | 0.00 | 0.00 | 0.00 | 89 | 1014.4 |
| 20260505074704 | 11 | 174 | 0.0 | 3.2 | 0.00 | 0.00 | 0.00 | 89 | 1014.4 |
| 20260505073704 | 11 | 174 | 0.0 | 3.2 | 0.00 | 0.00 | 0.00 | 89 | 1014.4 |
| 20260505072704 | 11 | 174 | 0.0 | 3.2 | 0.00 | 0.00 | 0.00 | 91 | 1014.2 |
| 20260505071704 | 12 | 162 | 0.0 | 4.8 | 0.00 | 0.00 | 0.00 | 90 | 1014.1 |
| 20260505070703 | 12 | 199 | 0.0 | 4.8 | 0.00 | 0.00 | 0.00 | 90 | 1014.1 |
| 20260505065704 | 12 | 190 | 1.6 | 4.8 | 0.00 | 0.00 | 0.00 | 89 | 1014.1 |
| 20260505064704 | 12 | 195 | 1.6 | 4.8 | 0.00 | 0.00 | 0.00 | 88 | 1014.1 |
| 20260505063704 | 12 | 200 | 0.0 | 4.8 | 0.00 | 0.00 | 0.00 | 88 | 1013.9 |
| 20260505061703 | 13 | 201 | 0.0 | 1.6 | 0.00 | 0.00 | 0.00 | 87 | 1013.9 |
| 20260505060704 | 13 | 201 | 0.0 | 4.8 | 0.00 | 0.00 | 0.00 | 87 | 1013.8 |
| 20260505055704 | 13 | 183 | 1.6 | 8.0 | 0.00 | 0.00 | 0.00 | 86 | 1013.8 |
| 20260505054704 | 13 | 200 | 0.0 | 3.2 | 0.00 | 0.00 | 0.00 | 87 | 1013.7 |
| 20260505053704 | 14 | 200 | 0.0 | 1.6 | 0.00 | 0.00 | 0.00 | 87 | 1013.7 |
| 20260505052704 | 14 | 200 | 0.0 | 0.0 | 0.00 | 0.00 | 0.00 | 85 | 1013.7 |
| 20260505051704 | 14 | 200 | 0.0 | 0.0 | 0.00 | 0.00 | 0.00 | 84 | 1013.7 |
| 20260505050704 | 14 | 200 | 0.0 | 0.0 | 0.00 | 0.00 | 0.00 | 83 | 1013.6 |
| 20260505040704 | 15 | 200 | 0.0 | 1.6 | 0.00 | 0.00 | 0.00 | 80 | 1013.3 |
| 20260505035704 | 15 | 200 | 0.0 | 1.6 | 0.00 | 0.00 | 0.00 | 80 | 1013.0 |
| 20260505034704 | 16 | 200 | 0.0 | 3.2 | 0.00 | 0.00 | 0.00 | 80 | 1012.9 |
| 20260505033703 | 16 | 200 | 0.0 | 4.8 | 0.00 | 0.00 | 0.00 | 80 | 1012.7 |
| 20260505032704 | 16 | 204 | 1.6 | 4.8 | 0.00 | 0.00 | 0.00 | 80 | 1012.8 |
| 20260505031704 | 17 | 217 | 1.6 | 4.8 | 0.00 | 0.00 | 0.00 | 79 | 1012.6 |
| 20260505030703 | 17 | 196 | 0.0 | 8.0 | 0.00 | 0.00 | 0.00 | 79 | 1012.6 |
| 20260505024704 | 17 | 185 | 3.2 | 9.7 | 0.00 | 0.00 | 0.00 | 77 | 1012.4 |
| 20260505023703 | 18 | 176 | 3.2 | 9.7 | 0.00 | 0.00 | 0.00 | 76 | 1012.4 |
| 20260505022704 | 18 | 224 | 1.6 | 4.8 | 0.00 | 0.00 | 0.00 | 76 | 1012.3 |
| 20260505020704 | 19 | 202 | 1.6 | 8.0 | 0.00 | 0.00 | 0.00 | 77 | 1012.3 |
| 20260505014704 | 20 | 195 | 0.0 | 8.0 | 0.00 | 0.00 | 0.00 | 75 | 1012.4 |
| 20260505013703 | 20 | 217 | 0.0 | 4.8 | 0.00 | 0.00 | 0.00 | 74 | 1012.4 |
| 20260505012704 | 20 | 201 | 3.2 | 12.9 | 0.00 | 0.00 | 0.00 | 75 | 1012.4 |
| 20260505010704 | 20 | 221 | 1.6 | 11.3 | 0.00 | 0.00 | 0.00 | 72 | 1012.7 |
| 20260505005704 | 21 | 217 | 1.6 | 11.3 | 0.00 | 0.00 | 0.00 | 74 | 1012.6 |
| 20260505004703 | 21 | 220 | 3.2 | 11.3 | 0.00 | 0.00 | 0.00 | 76 | 1012.7 |
| 20260505003704 | 21 | 235 | 1.6 | 9.7 | 0.00 | 0.00 | 0.00 | 73 | 1012.8 |
| 20260505002704 | 21 | 220 | 1.6 | 8.0 | 0.00 | 0.00 | 0.00 | 74 | 1012.7 |
| 20260505001703 | 21 | 207 | 1.6 | 8.0 | 0.00 | 0.00 | 0.00 | 75 | 1012.8 |
| 20260505000704 | 21 | 234 | 1.6 | 12.9 | 0.00 | 0.00 | 0.00 | 75 | 1012.7 |
| 20260504235704 | 21 | 212 | 1.6 | 14.5 | 0.00 | 0.00 | 0.00 | 75 | 1012.8 |
| 20260504234703 | 21 | 208 | 3.2 | 12.9 | 0.00 | 0.00 | 0.00 | 74 | 1012.8 |
| 20260504233704 | 21 | 214 | 1.6 | 8.0 | 0.00 | 0.00 | 0.00 | 75 | 1012.9 |
| 20260504232704 | 21 | 207 | 1.6 | 14.5 | 0.00 | 0.00 | 0.00 | 75 | 1013.2 |
| 20260504231704 | 21 | 205 | 1.6 | 8.0 | 0.00 | 0.00 | 0.00 | 73 | 1013.1 |
| 20260504230703 | 21 | 214 | 1.6 | 12.9 | 0.00 | 0.00 | 0.00 | 74 | 1013.2 |
| 20260504225704 | 21 | 191 | 3.2 | 12.9 | 0.00 | 0.00 | 0.00 | 74 | 1013.3 |
| 20260504224703 | 21 | 213 | 3.2 | 12.9 | 0.00 | 0.00 | 0.00 | 74 | 1013.3 |
| 20260504223704 | 21 | 221 | 1.6 | 11.3 | 0.00 | 0.00 | 0.00 | 74 | 1013.4 |
| 20260504222704 | 21 | 188 | 3.2 | 11.3 | 0.00 | 0.00 | 0.00 | 76 | 1013.6 |
| 20260504221704 | 21 | 232 | 1.6 | 8.0 | 0.00 | 0.00 | 0.00 | 74 | 1013.7 |
| 20260504212703 | 21 | 275 | 1.6 | 9.7 | 0.00 | 0.00 | 0.00 | 71 | 1013.9 |
| 20260504211704 | 21 | 189 | 3.2 | 9.7 | 0.00 | 0.00 | 0.00 | 71 | 1013.9 |
| 20260504210704 | 21 | 224 | 1.6 | 8.0 | 0.00 | 0.00 | 0.00 | 57 | 1014.1 |
| 20260504205704 | 21 | 181 | 1.6 | 8.0 | 0.00 | 0.00 | 0.00 | 74 | 1014.3 |
| 20260504204704 | 20 | 209 | 0.0 | 8.0 | 0.00 | 0.00 | 0.00 | 77 | 1014.4 |
| 20260504203703 | 20 | 206 | 1.6 | 8.0 | 0.00 | 0.00 | 0.00 | 75 | 1014.4 |
| 20260504202704 | 19 | 203 | 1.6 | 11.3 | 0.00 | 0.00 | 0.00 | 73 | 1014.5 |
| 20260504200704 | 18 | 203 | 0.0 | 8.0 | 0.00 | 0.00 | 0.00 | 78 | 1014.6 |
| 20260504195703 | 18 | 248 | 0.0 | 9.7 | 0.00 | 0.00 | 0.00 | 73 | 1014.6 |
| 20260504194704 | 17 | 209 | 1.6 | 4.8 | 0.00 | 0.00 | 0.00 | 80 | 1014.7 |
| 20260504191704 | 16 | 243 | 1.6 | 4.8 | 0.00 | 0.00 | 0.00 | 82 | 1014.7 |
| 20260504190703 | 15 | 207 | 0.0 | 4.8 | 0.00 | 0.00 | 0.00 | 87 | 1014.8 |
| 20260504185704 | 14 | 231 | 0.0 | 4.8 | 0.00 | 0.00 | 0.00 | 85 | 1014.7 |
| 20260504184704 | 14 | 217 | 1.6 | 4.8 | 0.00 | 0.00 | 0.00 | 88 | 1014.8 |
| 20260504183704 | 13 | 201 | 0.0 | 9.7 | 0.00 | 0.00 | 0.00 | 90 | 1014.7 |
| 20260504182703 | 13 | 219 | 0.0 | 4.8 | 0.00 | 0.00 | 0.00 | 89 | 1014.6 |
| 20260504181704 | 13 | 224 | 1.6 | 4.8 | 0.00 | 0.00 | 0.00 | 89 | 1014.7 |
| 20260504180704 | 12 | 187 | 1.6 | 4.8 | 0.00 | 0.00 | 0.00 | 91 | 1014.7 |
| 20260504175704 | 12 | 226 | 0.0 | 4.8 | 0.00 | 0.00 | 0.00 | 91 | 1014.7 |
| 20260504174704 | 12 | 214 | 0.0 | 4.8 | 0.00 | 0.00 | 0.00 | 92 | 1014.5 |
| 20260504173704 | 12 | 199 | 0.0 | 8.0 | 0.00 | 0.00 | 0.00 | 92 | 1014.5 |
| 20260504172704 | 12 | 182 | 0.0 | 8.0 | 0.00 | 0.00 | 0.00 | 94 | 1014.6 |
| 20260504171704 | 12 | 191 | 1.6 | 4.8 | 0.00 | 0.00 | 0.00 | 95 | 1014.5 |
| 20260504170703 | 11 | 189 | 1.6 | 4.8 | 0.00 | 0.00 | 0.00 | 93 | 1014.5 |
| 20260504150703 | 10 | 230 | 0.0 | 4.8 | 0.00 | 0.00 | 0.00 | 97 | 1013.9 |
| 20260504140703 | 10 | 222 | 1.6 | 14.5 | 0.00 | 0.00 | 0.00 | 98 | 1013.3 |
| 20260504130704 | 10 | 194 | 3.2 | 16.1 | 0.00 | 0.00 | 0.00 | 96 | 1012.5 |
| 20260504110704 | 13 | 188 | 4.8 | 19.3 | 0.00 | 0.00 | 0.00 | 81 | 1011.5 |
| 20260504080703 | 21 | 346 | 1.6 | 9.7 | 0.00 | 0.00 | 0.00 | 51 | 1011.0 |